Time;durP1;ratioP1;P1;durP2;ratioP2;P2;SDS_P1;SDS_P2;PMS_P1;PMS_P2;Temp;Humidity;BMP_temperature;BMP_pressure;BME280_temperature;BME280_humidity;BME280_pressure;Samples;Min_cycle;Max_cycle;Signal;HPM_P1;HPM_P2
2024/04/02 00:00:47;;;;;;;5.57;2.60;;;9.20;99.90;;;;;;5038901;28;20201;-82
2024/04/02 00:03:15;;;;;;;3.30;2.57;;;9.20;99.90;;;;;;5034742;28;20194;-83
2024/04/02 00:05:42;;;;;;;5.43;2.77;;;9.20;99.90;;;;;;5032224;28;20258;-83
2024/04/02 00:08:09;;;;;;;4.53;2.60;;;9.20;99.90;;;;;;5028849;28;20198;-81
2024/04/02 00:10:37;;;;;;;3.87;2.70;;;9.20;99.90;;;;;;5033588;28;20187;-83
2024/04/02 00:13:05;;;;;;;3.33;2.83;;;9.10;99.90;;;;;;5031263;28;20188;-83
2024/04/02 00:15:31;;;;;;;4.37;2.43;;;9.10;99.90;;;;;;5033301;28;20588;-81
2024/04/02 00:17:59;;;;;;;4.97;2.60;;;9.10;99.90;;;;;;5032080;28;20275;-82
2024/04/02 00:20:26;;;;;;;3.93;2.57;;;9.20;99.90;;;;;;5036202;28;20216;-83
2024/04/02 00:22:53;;;;;;;6.07;2.77;;;9.20;99.90;;;;;;5033527;28;20199;-82
2024/04/02 00:25:19;;;;;;;3.60;2.70;;;9.20;99.90;;;;;;5031411;28;20232;-82
2024/04/02 00:27:46;;;;;;;2.90;2.60;;;9.20;99.90;;;;;;5037563;28;20629;-83
2024/04/02 00:30:13;;;;;;;3.17;2.50;;;9.20;99.90;;;;;;5037000;28;20196;-83
2024/04/02 00:32:39;;;;;;;2.67;2.47;;;9.20;99.90;;;;;;5035256;28;20247;-83
2024/04/02 00:35:07;;;;;;;5.43;3.10;;;9.20;99.90;;;;;;5037334;28;20216;-82
2024/04/02 00:37:34;;;;;;;4.73;2.80;;;9.10;99.90;;;;;;5038104;28;20259;-82
2024/04/02 00:40:00;;;;;;;4.47;2.33;;;9.10;99.90;;;;;;5039320;28;20224;-83
2024/04/02 00:42:27;;;;;;;3.53;2.67;;;9.10;99.90;;;;;;5040902;28;20254;-83
2024/04/02 00:44:53;;;;;;;3.73;2.40;;;9.00;99.90;;;;;;5041753;28;20373;-82
2024/04/02 00:47:21;;;;;;;4.37;2.40;;;9.00;99.90;;;;;;5040564;28;20195;-83
2024/04/02 00:49:48;;;;;;;3.80;2.50;;;8.90;99.90;;;;;;5041478;28;20196;-80
2024/04/02 00:52:16;;;;;;;2.80;2.60;;;8.90;99.90;;;;;;5040563;28;20203;-81
2024/04/02 00:54:44;;;;;;;5.60;3.40;;;8.90;99.90;;;;;;5034088;28;20285;-82
2024/04/02 00:57:11;;;;;;;5.13;2.67;;;8.90;99.90;;;;;;5032434;28;20251;-82
2024/04/02 00:59:38;;;;;;;4.37;2.53;;;8.80;99.90;;;;;;5031100;28;20208;-84
2024/04/02 01:02:08;;;;;;;3.73;3.00;;;8.80;99.90;;;;;;5026973;28;20197;-81
2024/04/02 01:04:34;;;;;;;6.10;3.50;;;8.90;99.90;;;;;;5028241;28;20199;-82
2024/04/02 01:07:02;;;;;;;3.03;2.70;;;8.90;99.90;;;;;;5028889;28;20440;-83
2024/04/02 01:09:30;;;;;;;3.57;2.60;;;9.00;99.90;;;;;;5031011;28;20215;-83
2024/04/02 01:11:58;;;;;;;3.30;2.70;;;9.00;99.90;;;;;;5028575;28;20192;-82
2024/04/02 01:14:24;;;;;;;3.73;3.07;;;9.00;99.90;;;;;;5033743;28;20224;-83
2024/04/02 01:16:51;;;;;;;5.27;3.27;;;9.00;99.90;;;;;;5032933;28;20235;-83
2024/04/02 01:19:17;;;;;;;4.63;2.67;;;9.00;99.90;;;;;;5034220;28;20200;-81
2024/04/02 01:21:44;;;;;;;4.87;2.90;;;9.00;99.90;;;;;;5031200;28;20230;-82
2024/04/02 01:24:10;;;;;;;3.30;2.83;;;9.00;99.90;;;;;;5028283;28;20238;-81
2024/04/02 01:26:38;;;;;;;4.67;2.73;;;9.10;99.90;;;;;;5035649;28;20223;-82
2024/04/02 01:29:06;;;;;;;6.60;3.03;;;9.10;99.90;;;;;;5033581;28;20215;-81
2024/04/02 01:31:32;;;;;;;4.10;3.07;;;9.20;99.90;;;;;;5037726;28;20218;-81
2024/04/02 01:34:00;;;;;;;4.60;3.60;;;9.30;99.90;;;;;;5039239;28;20188;-81
2024/04/02 01:36:26;;;;;;;6.77;3.50;;;9.30;99.90;;;;;;5037733;28;20267;-81
2024/04/02 01:38:53;;;;;;;7.03;3.37;;;9.40;99.90;;;;;;5039027;28;20199;-82
2024/04/02 01:41:19;;;;;;;5.80;3.20;;;9.40;99.90;;;;;;5037173;28;20211;-84
2024/04/02 01:43:47;;;;;;;4.03;3.10;;;9.50;99.90;;;;;;5039226;28;20724;-84
2024/04/02 01:46:14;;;;;;;5.83;3.20;;;9.40;99.90;;;;;;5041196;28;20231;-82
2024/04/02 01:48:41;;;;;;;5.47;2.73;;;9.30;99.90;;;;;;5038245;28;20219;-81
2024/04/02 01:51:07;;;;;;;5.03;3.37;;;9.30;99.90;;;;;;5042887;28;20208;-81
2024/04/02 01:53:38;;;;;;;6.20;3.00;;;9.20;99.90;;;;;;5039537;28;20607;-83
2024/04/02 01:56:04;;;;;;;3.70;2.80;;;9.20;99.90;;;;;;5037301;28;20246;-83
2024/04/02 01:58:31;;;;;;;4.93;3.13;;;9.30;99.90;;;;;;5024869;28;20551;-83
2024/04/02 02:00:58;;;;;;;3.87;3.00;;;9.30;99.90;;;;;;5030904;28;20207;-82
2024/04/02 02:03:25;;;;;;;4.73;3.37;;;9.20;1.00;;;;;;5031619;28;20280;-81
2024/04/02 02:05:51;;;;;;;4.10;3.17;;;9.20;1.00;;;;;;5027669;28;20274;-82
2024/04/02 02:08:18;;;;;;;7.30;3.10;;;9.20;1.00;;;;;;5027455;28;20209;-81
2024/04/02 02:10:44;;;;;;;4.27;3.40;;;9.10;1.00;;;;;;5027730;28;21707;-83
2024/04/02 02:13:13;;;;;;;6.70;3.43;;;9.10;1.00;;;;;;5027859;28;20200;-81
2024/04/02 02:15:39;;;;;;;3.53;3.10;;;9.00;1.00;;;;;;5027656;28;20230;-82
2024/04/02 02:18:08;;;;;;;3.00;2.70;;;9.10;1.00;;;;;;5028060;28;20712;-81
2024/04/02 02:20:34;;;;;;;4.50;3.00;;;8.90;1.00;;;;;;5032369;28;20258;-81
2024/04/02 02:23:00;;;;;;;6.77;3.40;;;9.00;1.00;;;;;;5029961;28;20654;-82
2024/04/02 02:25:27;;;;;;;5.20;3.47;;;9.10;99.90;;;;;;5028859;28;20235;-82
2024/04/02 02:27:54;;;;;;;3.60;3.07;;;9.00;1.00;;;;;;5031047;28;20192;-83
2024/04/02 02:30:19;;;;;;;5.83;3.23;;;9.00;99.90;;;;;;5028835;28;20216;-81
2024/04/02 02:32:46;;;;;;;7.10;3.40;;;9.00;99.90;;;;;;5032125;28;20268;-82
2024/04/02 02:35:14;;;;;;;4.40;3.33;;;9.00;1.00;;;;;;5034702;28;20780;-83
2024/04/02 02:37:41;;;;;;;6.77;3.80;;;9.00;1.00;;;;;;5033394;28;20220;-81
2024/04/02 02:40:07;;;;;;;5.60;3.93;;;9.00;1.00;;;;;;5030485;28;20291;-83
2024/04/02 02:42:34;;;;;;;6.77;3.77;;;9.00;1.00;;;;;;5031193;28;20271;-83
2024/04/02 02:45:00;;;;;;;8.13;3.90;;;9.00;1.00;;;;;;5036706;28;20220;-81
2024/04/02 02:47:27;;;;;;;6.67;4.07;;;8.90;1.00;;;;;;5037595;28;20210;-83
2024/04/02 02:49:53;;;;;;;5.57;3.90;;;8.90;1.00;;;;;;5029748;28;20208;-83
2024/04/02 02:52:22;;;;;;;5.73;3.63;;;8.80;1.00;;;;;;5038275;28;20211;-83
2024/04/02 02:54:48;;;;;;;7.40;4.50;;;8.80;1.00;;;;;;5038888;28;20708;-82
2024/04/02 02:57:15;;;;;;;3.97;3.20;;;8.80;1.00;;;;;;5035364;28;20247;-81
2024/04/02 02:59:43;;;;;;;5.50;3.83;;;8.80;1.00;;;;;;5039122;28;20215;-83
2024/04/02 03:02:10;;;;;;;4.33;3.50;;;8.90;1.00;;;;;;5035551;28;20200;-80
2024/04/02 03:04:36;;;;;;;8.37;3.73;;;8.80;1.00;;;;;;5031883;28;20203;-80
2024/04/02 03:07:03;;;;;;;5.90;3.30;;;8.70;1.00;;;;;;5033932;28;20196;-82
2024/04/02 03:09:32;;;;;;;4.47;3.27;;;8.70;1.00;;;;;;5035274;28;20207;-81
2024/04/02 03:11:59;;;;;;;4.07;2.93;;;8.70;1.00;;;;;;5036852;28;20263;-83
2024/04/02 03:14:25;;;;;;;7.00;3.93;;;8.70;1.00;;;;;;5033697;28;20204;-81
2024/04/02 03:16:53;;;;;;;6.20;3.30;;;8.70;99.90;;;;;;5034220;28;20301;-82
2024/04/02 03:19:19;;;;;;;4.03;2.97;;;8.90;99.90;;;;;;5029904;28;20219;-81
2024/04/02 03:21:46;;;;;;;3.37;2.80;;;8.70;99.90;;;;;;5030917;28;20195;-83
2024/04/02 03:24:12;;;;;;;4.67;2.90;;;8.70;99.90;;;;;;5029494;28;20235;-79
2024/04/02 03:26:40;;;;;;;5.37;3.83;;;8.70;1.00;;;;;;5032808;28;20219;-83
2024/04/02 03:29:07;;;;;;;4.20;3.03;;;8.80;1.00;;;;;;5034232;28;20259;-82
2024/04/02 03:31:34;;;;;;;4.90;3.10;;;8.70;1.00;;;;;;5036009;28;20207;-83
2024/04/02 03:34:00;;;;;;;5.47;3.30;;;8.70;1.00;;;;;;5036260;28;20728;-81
2024/04/02 03:36:27;;;;;;;3.67;3.20;;;8.60;99.90;;;;;;5029156;28;20307;-81
2024/04/02 03:38:54;;;;;;;6.83;3.67;;;8.60;99.90;;;;;;5026301;28;20204;-79
2024/04/02 03:41:21;;;;;;;8.93;4.03;;;8.60;99.90;;;;;;5029695;28;20719;-80
2024/04/02 03:43:48;;;;;;;5.33;4.17;;;8.70;1.00;;;;;;5027591;28;20208;-82
2024/04/02 03:46:15;;;;;;;7.43;4.70;;;8.70;1.00;;;;;;5023357;28;20315;-82
2024/04/02 03:48:43;;;;;;;7.80;4.33;;;8.70;84.20;;;;;;5035189;28;20254;-82
2024/04/02 03:51:09;;;;;;;10.13;4.90;;;8.60;1.00;;;;;;5021729;28;20282;-81
2024/04/02 03:53:35;;;;;;;5.93;4.57;;;8.60;99.90;;;;;;5030412;28;20635;-84
2024/04/02 03:56:04;;;;;;;6.90;4.73;;;8.60;99.90;;;;;;5034194;28;20211;-83
2024/04/02 03:58:30;;;;;;;9.13;5.60;;;8.70;91.90;;;;;;5037207;28;20258;-82
2024/04/02 04:00:59;;;;;;;9.27;5.67;;;8.70;1.00;;;;;;5034864;28;20651;-82
2024/04/02 04:03:26;;;;;;;7.37;5.57;;;8.80;20.80;;;;;;5024500;28;20270;-82
2024/04/02 04:05:58;;;;;;;7.23;5.40;;;8.80;66.90;;;;;;5023382;28;20259;-81
2024/04/02 04:08:25;;;;;;;11.20;5.47;;;8.90;1.00;;;;;;5025625;28;20206;-80
2024/04/02 04:10:52;;;;;;;6.73;5.23;;;8.90;1.00;;;;;;5030733;28;20206;-83
2024/04/02 04:13:18;;;;;;;8.80;5.43;;;8.90;1.00;;;;;;5022454;28;20200;-81
2024/04/02 04:15:52;;;;;;;6.83;5.13;;;8.90;1.00;;;;;;5024716;28;20593;-82
2024/04/02 04:18:20;;;;;;;5.77;4.70;;;9.00;1.00;;;;;;5023748;28;20260;-82
2024/04/02 04:20:57;;;;;;;5.70;4.80;;;9.00;1.00;;;;;;5024617;28;20200;-81
2024/04/02 04:23:24;;;;;;;6.23;4.57;;;9.00;1.00;;;;;;5025968;28;20208;-81
2024/04/02 04:25:56;;;;;;;7.67;4.27;;;9.00;1.00;;;;;;5026777;28;20246;-82
2024/04/02 04:28:22;;;;;;;4.57;3.97;;;9.00;1.00;;;;;;5023334;28;20288;-81
2024/04/02 04:30:56;;;;;;;5.57;4.13;;;9.00;1.00;;;;;;5027429;28;20208;-81
2024/04/02 04:33:24;;;;;;;4.80;3.73;;;9.10;1.00;;;;;;5024884;28;20234;-82
2024/04/02 04:35:51;;;;;;;6.03;3.77;;;9.10;99.90;;;;;;5026618;28;20308;-80
2024/04/02 04:38:18;;;;;;;5.57;3.57;;;9.20;99.90;;;;;;5025355;28;20220;-82
2024/04/02 04:40:45;;;;;;;5.87;3.30;;;9.20;99.90;;;;;;5026682;28;20195;-80
2024/04/02 04:43:14;;;;;;;4.63;3.43;;;9.20;54.80;;;;;;5030224;28;20208;-83
2024/04/02 04:45:41;;;;;;;3.90;3.47;;;9.20;1.00;;;;;;5028566;28;20686;-81
2024/04/02 04:48:08;;;;;;;4.67;3.60;;;9.20;1.00;;;;;;5023509;28;20258;-82
2024/04/02 04:50:36;;;;;;;7.60;4.30;;;9.20;1.00;;;;;;5022324;28;20243;-82
2024/04/02 04:53:02;;;;;;;7.13;3.73;;;9.30;1.00;;;;;;5018433;28;20646;-83
2024/04/02 04:55:31;;;;;;;6.23;4.03;;;9.30;1.00;;;;;;5033280;28;20226;-81
2024/04/02 04:57:57;;;;;;;4.97;4.20;;;9.40;99.90;;;;;;5029794;28;20224;-83
2024/04/02 05:00:24;;;;;;;5.00;4.00;;;9.40;99.90;;;;;;5025490;28;20197;-81
2024/04/02 05:02:50;;;;;;;5.43;4.03;;;9.40;99.90;;;;;;5026008;28;20201;-80
2024/04/02 05:05:17;;;;;;;5.07;3.93;;;9.50;99.90;;;;;;5018987;28;20247;-80
2024/04/02 05:07:57;;;;;;;6.13;4.00;;;9.50;99.90;;;;;;5020922;28;20196;-81
2024/04/02 05:10:25;;;;;;;7.03;5.07;;;9.60;1.00;;;;;;5022782;28;20200;-82
2024/04/02 05:12:51;;;;;;;6.30;4.77;;;9.50;1.00;;;;;;5023307;28;20212;-82
2024/04/02 05:15:18;;;;;;;8.83;5.10;;;9.40;1.00;;;;;;5024118;28;20270;-82
2024/04/02 05:17:44;;;;;;;5.90;5.27;;;9.40;1.00;;;;;;5023165;28;20760;-82
2024/04/02 05:20:11;;;;;;;8.43;5.43;;;9.30;1.00;;;;;;5023279;28;20216;-81
2024/04/02 05:22:36;;;;;;;6.77;5.10;;;9.40;44.40;;;;;;5028776;28;20188;-81
2024/04/02 05:25:05;;;;;;;9.27;6.03;;;9.70;1.00;;;;;;5032625;28;20227;-82
2024/04/02 05:27:31;;;;;;;7.20;5.33;;;9.80;1.00;;;;;;5031884;28;20203;-80
2024/04/02 05:29:58;;;;;;;6.37;5.20;;;10.00;1.00;;;;;;5024927;28;20192;-82
2024/04/02 05:32:24;;;;;;;6.40;5.30;;;9.90;1.00;;;;;;5023960;28;20230;-82
2024/04/02 05:34:51;;;;;;;7.03;4.63;;;10.30;99.90;;;;;;5020776;28;20207;-80
2024/04/02 05:37:17;;;;;;;6.40;5.13;;;10.20;78.50;;;;;;5032054;28;20216;-81
2024/04/02 05:39:49;;;;;;;8.17;4.87;;;10.10;99.90;;;;;;5021242;28;20291;-81
2024/04/02 05:42:17;;;;;;;5.70;4.60;;;10.00;99.90;;;;;;5026230;28;20232;-81
2024/04/02 05:44:44;;;;;;;5.43;4.80;;;9.90;99.90;;;;;;5022993;28;20286;-80
2024/04/02 05:47:10;;;;;;;8.07;4.50;;;9.90;99.90;;;;;;5028819;28;20203;-81
2024/04/02 05:49:37;;;;;;;6.07;4.17;;;9.80;99.90;;;;;;5032039;28;20253;-81
2024/04/02 05:52:04;;;;;;;4.57;3.97;;;9.80;99.90;;;;;;5030026;28;20208;-80
2024/04/02 05:54:32;;;;;;;6.60;4.47;;;9.80;99.90;;;;;;5022370;28;20207;-83
2024/04/02 05:56:58;;;;;;;7.37;4.50;;;9.80;99.90;;;;;;5028950;28;20257;-81
2024/04/02 05:59:26;;;;;;;6.37;4.40;;;9.90;99.90;;;;;;5034954;28;20211;-80
2024/04/02 06:01:52;;;;;;;5.33;3.97;;;9.90;99.90;;;;;;5033160;28;20208;-82
2024/04/02 06:04:19;;;;;;;6.10;3.73;;;9.80;99.90;;;;;;5024874;28;20257;-81
2024/04/02 06:06:46;;;;;;;7.80;3.80;;;9.80;99.90;;;;;;5027057;28;20219;-83
2024/04/02 06:09:13;;;;;;;8.87;4.00;;;9.80;99.90;;;;;;5020437;28;20200;-80
2024/04/02 06:11:39;;;;;;;5.97;3.60;;;9.80;99.90;;;;;;5023374;28;20662;-81
2024/04/02 06:14:06;;;;;;;4.10;3.60;;;9.80;28.80;;;;;;5023573;28;20569;-82
2024/04/02 06:16:34;;;;;;;8.37;3.57;;;9.90;1.00;;;;;;5032017;28;20254;-81
2024/04/02 06:19:01;;;;;;;4.10;3.30;;;9.90;99.90;;;;;;5026335;28;20293;-82
2024/04/02 06:21:27;;;;;;;5.57;3.40;;;9.90;1.00;;;;;;5025727;28;20650;-82
2024/04/02 06:23:54;;;;;;;6.70;3.57;;;10.00;1.00;;;;;;5027521;28;20192;-81
2024/04/02 06:26:20;;;;;;;7.47;3.77;;;10.00;1.00;;;;;;5027511;28;20282;-81
2024/04/02 06:28:47;;;;;;;6.77;3.23;;;10.10;1.00;;;;;;5027205;28;20256;-80
2024/04/02 06:31:13;;;;;;;5.27;3.37;;;10.20;1.00;;;;;;5033973;28;20215;-81
2024/04/02 06:33:41;;;;;;;5.53;3.30;;;10.20;1.00;;;;;;5034191;28;20241;-81
2024/04/02 06:36:07;;;;;;;5.27;3.30;;;10.20;1.00;;;;;;5029743;28;20246;-81
2024/04/02 06:38:34;;;;;;;7.97;3.83;;;10.20;1.00;;;;;;5035422;28;20257;-80
2024/04/02 06:41:00;;;;;;;4.33;3.00;;;10.20;1.00;;;;;;5029802;28;20250;-81
2024/04/02 06:43:27;;;;;;;6.03;3.50;;;10.40;1.00;;;;;;5032628;28;20201;-80
2024/04/02 06:45:54;;;;;;;4.63;4.00;;;10.80;1.00;;;;;;5027773;28;20236;-83
2024/04/02 06:48:21;;;;;;;7.73;3.80;;;11.20;99.90;;;;;;5028156;28;20202;-80
2024/04/02 06:50:56;;;;;;;6.20;3.27;;;11.80;99.90;;;;;;5031538;28;20216;-81
2024/04/02 06:53:23;;;;;;;5.90;3.23;;;11.60;99.90;;;;;;5036430;28;20286;-81
2024/04/02 06:55:49;;;;;;;7.23;3.80;;;11.10;99.90;;;;;;5033324;28;20227;-82
2024/04/02 06:58:16;;;;;;;6.20;4.13;;;10.70;83.60;;;;;;5038427;28;20682;-78
2024/04/02 07:00:44;;;;;;;4.27;3.87;;;11.00;99.90;;;;;;5038248;28;20200;-83
2024/04/02 07:03:16;;;;;;;4.53;3.97;;;10.80;99.90;;;;;;5035190;28;20211;-81
2024/04/02 07:05:43;;;;;;;6.53;4.47;;;10.90;99.90;;;;;;5036580;28;20235;-81
2024/04/02 07:08:11;;;;;;;5.40;4.87;;;10.80;99.90;;;;;;5024597;28;20283;-81
2024/04/02 07:10:40;;;;;;;6.97;4.63;;;10.70;99.90;;;;;;5026814;28;20277;-81
2024/04/02 07:13:07;;;;;;;6.87;5.37;;;10.80;99.90;;;;;;5026016;28;20200;-82
2024/04/02 07:15:33;;;;;;;6.13;4.80;;;10.70;99.90;;;;;;5026424;28;20277;-79
2024/04/02 07:18:00;;;;;;;6.77;4.70;;;10.70;99.90;;;;;;5031110;28;20216;-80
2024/04/02 07:20:26;;;;;;;6.83;4.80;;;10.80;99.90;;;;;;5029792;28;20255;-79
2024/04/02 07:22:53;;;;;;;10.00;4.90;;;10.80;99.90;;;;;;5028701;28;20201;-81
2024/04/02 07:25:20;;;;;;;6.83;4.20;;;10.80;99.90;;;;;;5029593;28;20223;-81
2024/04/02 07:27:47;;;;;;;4.63;4.07;;;10.80;29.80;;;;;;5029783;28;20323;-80
2024/04/02 07:30:13;;;;;;;5.13;3.80;;;11.20;1.00;;;;;;5028629;28;20586;-82
2024/04/02 07:32:40;;;;;;;7.50;4.10;;;11.20;1.00;;;;;;5030042;28;20527;-83
2024/04/02 07:35:06;;;;;;;8.10;4.70;;;11.40;1.00;;;;;;5033501;28;20224;-80
2024/04/02 07:37:34;;;;;;;6.57;4.63;;;11.30;1.00;;;;;;5033819;28;20199;-82
2024/04/02 07:39:59;;;;;;;6.27;4.60;;;11.10;1.00;;;;;;5030685;28;20207;-80
2024/04/02 07:42:28;;;;;;;7.17;4.80;;;11.10;1.00;;;;;;5028410;28;20196;-79
2024/04/02 07:44:54;;;;;;;9.37;4.70;;;11.20;1.00;;;;;;5028494;28;20200;-82
2024/04/02 07:47:21;;;;;;;5.13;4.10;;;11.30;1.00;;;;;;5030355;28;20197;-82
2024/04/02 07:49:47;;;;;;;7.43;4.53;;;11.20;1.00;;;;;;5026609;28;20200;-83
2024/04/02 07:52:14;;;;;;;6.13;4.80;;;11.10;1.00;;;;;;5026106;28;20722;-79
2024/04/02 07:54:40;;;;;;;7.83;5.67;;;11.20;1.00;;;;;;5035383;28;20207;-80
2024/04/02 07:57:07;;;;;;;6.53;5.10;;;11.30;1.00;;;;;;5037056;28;20244;-80
2024/04/02 07:59:35;;;;;;;6.13;4.93;;;11.30;1.00;;;;;;5035096;28;20228;-81
2024/04/02 08:02:02;;;;;;;5.80;4.73;;;11.30;1.00;;;;;;5027613;28;20653;-80
2024/04/02 08:04:28;;;;;;;8.67;4.80;;;11.30;1.00;;;;;;5038937;28;20654;-81
2024/04/02 08:06:55;;;;;;;6.50;5.40;;;11.20;1.00;;;;;;5029687;28;20223;-80
2024/04/02 08:09:20;;;;;;;9.23;5.30;;;11.20;1.00;;;;;;5030554;28;20640;-80
2024/04/02 08:11:48;;;;;;;6.30;5.40;;;11.30;1.00;;;;;;5032138;28;20208;-82
2024/04/02 08:14:14;;;;;;;6.67;5.10;;;11.30;1.00;;;;;;5027254;28;20204;-82
2024/04/02 08:16:43;;;;;;;6.63;5.10;;;11.50;1.00;;;;;;5035021;28;20618;-83
2024/04/02 08:19:09;;;;;;;7.97;5.03;;;11.60;1.00;;;;;;5026163;28;20600;-82
2024/04/02 08:21:36;;;;;;;6.03;5.00;;;11.60;1.00;;;;;;5030944;28;20223;-82
2024/04/02 08:24:02;;;;;;;7.00;5.50;;;11.60;1.00;;;;;;5025525;28;20220;-80
2024/04/02 08:26:29;;;;;;;7.50;4.60;;;11.70;1.00;;;;;;5032749;28;20307;-81
2024/04/02 08:28:56;;;;;;;8.43;5.17;;;11.80;1.00;;;;;;5027519;28;20196;-82
2024/04/02 08:31:23;;;;;;;7.90;5.40;;;11.80;1.00;;;;;;5027182;28;20236;-79
2024/04/02 08:33:50;;;;;;;7.50;5.20;;;11.70;1.00;;;;;;5031200;28;20199;-79
2024/04/02 08:36:17;;;;;;;8.20;5.80;;;11.70;1.00;;;;;;5027202;28;20224;-79
2024/04/02 08:38:43;;;;;;;9.27;5.27;;;11.80;1.00;;;;;;5031141;28;20219;-82
2024/04/02 08:41:12;;;;;;;8.60;5.47;;;12.00;99.90;;;;;;5026616;28;20211;-82
2024/04/02 08:43:40;;;;;;;9.13;5.57;;;12.10;1.00;;;;;;5031321;28;20242;-80
2024/04/02 08:46:08;;;;;;;6.67;5.43;;;12.30;99.90;;;;;;5029491;28;20227;-81
2024/04/02 08:48:35;;;;;;;9.13;5.33;;;12.30;99.90;;;;;;5034636;28;20227;-80
2024/04/02 08:51:05;;;;;;;7.87;5.20;;;12.60;99.90;;;;;;5030827;28;20646;-80
2024/04/02 08:53:32;;;;;;;7.90;4.97;;;12.60;99.90;;;;;;5041416;28;20199;-80
2024/04/02 08:56:02;;;;;;;7.93;5.30;;;12.80;99.90;;;;;;5032302;28;20258;-81
2024/04/02 08:58:28;;;;;;;6.93;5.50;;;12.70;99.90;;;;;;5029893;28;20235;-80
2024/04/02 09:00:57;;;;;;;11.17;6.00;;;12.70;99.90;;;;;;5037964;28;20191;-80
2024/04/02 09:03:24;;;;;;;8.70;4.77;;;13.00;99.90;;;;;;5032119;28;20212;-79
2024/04/02 09:05:51;;;;;;;9.17;5.60;;;13.10;99.90;;;;;;5030894;28;20240;-81
2024/04/02 09:08:18;;;;;;;6.53;5.50;;;13.30;97.00;;;;;;5038341;28;20206;-80
2024/04/02 09:10:45;;;;;;;8.37;5.20;;;13.20;77.90;;;;;;5025311;28;20239;-79
2024/04/02 09:13:11;;;;;;;8.13;5.40;;;13.10;1.00;;;;;;5028427;28;20225;-82
2024/04/02 09:15:40;;;;;;;9.40;5.80;;;13.20;1.00;;;;;;5032475;28;20219;-82
2024/04/02 09:18:06;;;;;;;6.43;4.70;;;13.60;1.00;;;;;;5021182;28;20339;-80
2024/04/02 09:20:36;;;;;;;6.00;4.70;;;13.40;1.00;;;;;;5028176;28;20605;-82
2024/04/02 09:23:03;;;;;;;8.47;4.57;;;13.60;1.00;;;;;;5027219;28;20223;-82
2024/04/02 09:25:31;;;;;;;5.63;4.90;;;13.50;1.00;;;;;;5028403;28;20225;-82
2024/04/02 09:27:57;;;;;;;7.60;4.33;;;13.70;1.00;;;;;;5027230;28;20733;-82
2024/04/02 09:30:26;;;;;;;5.47;3.80;;;14.10;1.00;;;;;;5030801;28;20601;-81
2024/04/02 09:32:52;;;;;;;6.73;3.87;;;14.20;1.00;;;;;;5028639;28;20212;-81
2024/04/02 09:35:28;;;;;;;7.30;3.63;;;13.90;1.00;;;;;;5027002;28;20219;-81
2024/04/02 09:37:54;;;;;;;5.20;3.40;;;13.90;1.00;;;;;;5031364;28;20203;-79
2024/04/02 09:40:22;;;;;;;5.03;3.77;;;13.30;1.00;;;;;;5025829;28;20291;-81
2024/04/02 09:42:50;;;;;;;4.47;3.53;;;13.90;1.00;;;;;;5033502;28;20618;-80
2024/04/02 09:45:19;;;;;;;7.40;3.70;;;14.00;1.00;;;;;;5029884;28;20219;-81
2024/04/02 09:47:47;;;;;;;6.33;4.07;;;13.60;1.00;;;;;;5035816;28;20196;-82
2024/04/02 09:50:14;;;;;;;7.43;4.03;;;13.30;1.00;;;;;;5025465;28;20265;-79
2024/04/02 09:52:42;;;;;;;9.03;5.00;;;13.30;1.00;;;;;;5023806;28;20197;-81
2024/04/02 09:55:10;;;;;;;5.60;4.23;;;13.50;1.00;;;;;;5036009;28;20219;-82
2024/04/02 09:57:37;;;;;;;4.63;4.20;;;13.80;1.00;;;;;;5032313;28;20207;-81
2024/04/02 10:00:08;;;;;;;6.97;4.50;;;13.40;1.00;;;;;;5033635;28;20628;-80
2024/04/02 10:02:36;;;;;;;7.27;4.63;;;13.20;1.00;;;;;;5033481;28;20227;-80
2024/04/02 10:05:03;;;;;;;8.63;5.17;;;13.10;1.00;;;;;;5032173;28;20216;-82
2024/04/02 10:07:30;;;;;;;6.23;4.47;;;13.10;1.00;;;;;;5035389;28;20211;-82
2024/04/02 10:09:58;;;;;;;7.67;4.83;;;12.90;1.00;;;;;;5031816;28;20200;-82
2024/04/02 10:12:28;;;;;;;9.33;5.50;;;12.70;1.00;;;;;;5034151;28;20207;-81
2024/04/02 10:14:55;;;;;;;6.37;4.67;;;12.90;1.00;;;;;;5032703;28;20250;-81
2024/04/02 10:17:22;;;;;;;7.37;5.13;;;13.40;1.00;;;;;;5033836;28;20262;-82
2024/04/02 10:19:51;;;;;;;5.50;4.50;;;13.40;1.00;;;;;;5026132;28;20273;-79
2024/04/02 10:22:26;;;;;;;6.23;4.33;;;13.30;1.00;;;;;;5026932;28;20239;-81
2024/04/02 10:25:06;;;;;;;4.97;3.93;;;13.60;1.00;;;;;;5030899;28;20226;-80
2024/04/02 10:27:35;;;;;;;6.27;4.30;;;13.90;1.00;;;;;;5031370;28;20212;-82
2024/04/02 10:30:02;;;;;;;10.17;4.60;;;13.70;1.00;;;;;;5026259;28;20576;-81
2024/04/02 10:32:34;;;;;;;6.10;4.07;;;13.50;1.00;;;;;;5028858;28;20266;-81
2024/04/02 10:35:01;;;;;;;8.20;4.60;;;13.60;1.00;;;;;;5028899;28;20224;-81
2024/04/02 10:37:27;;;;;;;10.30;4.60;;;13.60;1.00;;;;;;5031329;28;20606;-80
2024/04/02 10:39:54;;;;;;;6.13;4.27;;;13.00;1.00;;;;;;5027071;28;20219;-80
2024/04/02 10:42:20;;;;;;;7.50;5.43;;;12.80;1.00;;;;;;5027437;28;20215;-82
2024/04/02 10:44:47;;;;;;;7.30;5.20;;;13.30;1.00;;;;;;5028718;28;20199;-81
2024/04/02 10:47:16;;;;;;;8.77;5.33;;;13.90;1.00;;;;;;5026701;28;20212;-80
2024/04/02 10:49:50;;;;;;;10.27;5.13;;;13.90;1.00;;;;;;5030646;28;20250;-81
2024/04/02 10:52:16;;;;;;;7.70;5.43;;;13.80;1.00;;;;;;5024031;28;20291;-81
2024/04/02 10:54:43;;;;;;;10.63;6.10;;;14.10;1.00;;;;;;5022986;28;20231;-83
2024/04/02 10:57:09;;;;;;;8.93;6.00;;;14.60;1.00;;;;;;5030676;28;20199;-80
2024/04/02 10:59:37;;;;;;;9.33;6.00;;;14.10;1.00;;;;;;5029478;28;20258;-80
2024/04/02 11:02:13;;;;;;;9.07;5.87;;;13.80;1.00;;;;;;5028388;28;20239;-82
2024/04/02 11:04:40;;;;;;;7.73;6.17;;;13.50;1.00;;;;;;5034886;28;20934;-83
2024/04/02 11:07:11;;;;;;;9.53;6.00;;;13.20;1.00;;;;;;5036787;28;20207;-81
2024/04/02 11:09:38;;;;;;;7.47;5.83;;;13.10;1.00;;;;;;5037734;28;20211;-82
2024/04/02 11:12:06;;;;;;;8.43;5.37;;;13.10;1.00;;;;;;5035907;28;20621;-80
2024/04/02 11:14:34;;;;;;;8.20;5.20;;;13.30;1.00;;;;;;5041763;28;20389;-80
2024/04/02 11:17:00;;;;;;;8.40;5.33;;;13.60;1.00;;;;;;5035643;28;20223;-83
2024/04/02 11:19:27;;;;;;;7.10;5.17;;;13.70;1.00;;;;;;5037206;28;20223;-81
2024/04/02 11:24:57;;;;;;;8.10;5.10;;;13.50;1.00;;;;;;5032419;28;20661;-80
2024/04/02 11:25:03;;;;;;;8.73;5.07;;;13.60;1.00;;;;;;5031489;28;20211;-81
2024/04/02 11:27:31;;;;;;;8.57;5.17;;;13.90;1.00;;;;;;5034624;28;20208;-82
2024/04/02 11:29:59;;;;;;;7.13;4.70;;;14.00;1.00;;;;;;5032285;28;20267;-81
2024/04/02 11:32:26;;;;;;;4.87;4.20;;;13.90;1.00;;;;;;5034668;28;20649;-80
2024/04/02 11:34:58;;;;;;;9.50;4.73;;;13.60;1.00;;;;;;5033906;28;20196;-79
2024/04/02 11:37:24;;;;;;;9.00;4.50;;;13.40;1.00;;;;;;5032300;28;20625;-79
2024/04/02 11:39:53;;;;;;;5.47;4.20;;;13.10;99.90;;;;;;5031501;28;20216;-81
2024/04/02 11:42:19;;;;;;;7.60;4.53;;;13.00;1.00;;;;;;5036507;28;20215;-80
2024/04/02 11:44:46;;;;;;;5.17;3.73;;;13.10;1.00;;;;;;5036709;28;20263;-80
2024/04/02 11:47:13;;;;;;;7.37;3.90;;;13.00;1.00;;;;;;5038080;28;20208;-80
2024/04/02 11:49:41;;;;;;;4.50;3.10;;;13.00;1.00;;;;;;5034018;28;20644;-80
2024/04/02 11:52:08;;;;;;;4.17;3.00;;;12.90;1.00;;;;;;5026466;28;20204;-79
2024/04/02 11:54:35;;;;;;;8.43;3.17;;;12.80;1.00;;;;;;5040307;28;20195;-81
2024/04/02 12:00:11;;;;;;;6.10;3.07;;;12.90;1.00;;;;;;5032824;28;20706;-82
2024/04/02 12:02:39;;;;;;;8.03;3.10;;;13.00;1.00;;;;;;5028739;28;20208;-80
2024/04/02 12:05:06;;;;;;;6.77;2.90;;;13.20;99.90;;;;;;5035655;28;20657;-79
2024/04/02 12:07:33;;;;;;;3.37;2.40;;;13.20;99.90;;;;;;5029228;28;20208;-83
2024/04/02 12:10:02;;;;;;;4.87;2.80;;;13.10;99.90;;;;;;5035739;28;20200;-82
2024/04/02 12:12:31;;;;;;;8.77;2.90;;;13.00;99.90;;;;;;5027684;28;20203;-80
2024/04/02 12:14:57;;;;;;;5.10;2.23;;;12.90;99.90;;;;;;5032116;28;20227;-82
2024/04/02 12:17:25;;;;;;;3.07;1.97;;;13.20;99.90;;;;;;5034635;28;20207;-83
2024/04/02 12:19:52;;;;;;;3.53;2.23;;;13.50;99.90;;;;;;5034514;28;20317;-79
2024/04/02 12:22:20;;;;;;;3.87;2.40;;;13.50;99.90;;;;;;5031035;28;20211;-81
2024/04/02 12:24:46;;;;;;;7.10;2.67;;;13.50;99.90;;;;;;5036041;28;20207;-81
2024/04/02 12:27:13;;;;;;;5.73;2.47;;;13.50;99.90;;;;;;5032834;28;20208;-80
2024/04/02 12:29:43;;;;;;;9.80;2.37;;;13.50;99.90;;;;;;5025731;28;20285;-80
2024/04/02 12:32:11;;;;;;;7.97;2.83;;;13.50;99.90;;;;;;5027201;28;20219;-82
2024/04/02 12:34:39;;;;;;;5.60;2.90;;;13.60;99.90;;;;;;5027136;28;20211;-81
2024/04/02 12:37:06;;;;;;;7.47;2.60;;;13.50;99.90;;;;;;5027512;28;20238;-83
2024/04/02 12:39:34;;;;;;;5.93;2.87;;;13.50;99.90;;;;;;5028699;28;20490;-83
2024/04/02 12:42:04;;;;;;;5.13;2.70;;;13.30;99.90;;;;;;5032861;28;20210;-82
2024/04/02 12:44:30;;;;;;;5.87;2.40;;;13.30;99.90;;;;;;5028477;28;20204;-82
2024/04/02 12:46:59;;;;;;;6.07;2.67;;;13.30;99.90;;;;;;5032635;28;20220;-83
2024/04/02 12:49:26;;;;;;;6.30;2.80;;;13.40;99.90;;;;;;5029441;28;20208;-83
2024/04/02 12:51:53;;;;;;;10.23;3.37;;;13.50;99.90;;;;;;5026512;28;20200;-82
2024/04/02 12:54:19;;;;;;;5.20;3.10;;;13.50;99.90;;;;;;5028265;28;20228;-81
2024/04/02 12:56:49;;;;;;;7.80;3.20;;;13.30;99.90;;;;;;5024841;28;20238;-82
2024/04/02 12:59:15;;;;;;;6.53;3.20;;;13.30;90.10;;;;;;5023797;28;20228;-81
2024/04/02 13:01:42;;;;;;;3.77;2.93;;;13.20;87.60;;;;;;5024521;28;20241;-83